Charter Quote
Worldwide +1-877-727-2538 Call
Select Language Lang
SAFETY RELIABILITY EXPERIENCE

Private Jet Charter Services - Yushu Batang (ZLYS)

Paramount Business Jets offers private jet charter flights and luxury airliner charters to and from Yushu Batang.

AIRPORT INFORMATION
ICAOZLYS
IATAYUS
LOCATIONYushu, China
FACILITY TYPEAIRPORT

At Paramount Business Jets you can hire chartered private jets to and from Yushu Batang with as little as 4 hours of notice. All flights booked via Paramount Business Jets are operated by certified direct air carriers that meet and exceed the FAA part 135 and 121 protocol or a foreign equivalent safety authority. Furthermore, Paramount Business Jets subscribes to ARGUS for their third party safety checks of operators, aircraft, and crews prior each and every flight to and from Yushu Batang and worldwide.

  • Quote a trip using Yushu Batang or call us 24/7 - 365 days a year at +1-877-727-2538.
Questions? Call +1-877-727-2538

METAR Weather Data at Yushu Batang, ZLYS, YUS

STATIONZLYS
OBSERVEDTue Mar 10, 19:00 UTC
NOWTue Jul 16, 04:32 UTC
AGE38121:32 hr ago
WINDW at 13 mph
VISIBILITY16 miles
CLOUDSpartly cloudy
TEMP21°F (-6°C)
WIND CHILL8°F (-13°C)
DEWPT-0°F (-18°C)
HUMIDITY38%
BAROMETER1031 hPa (30.45 in Hg)
METARZLYS 101900Z 28006MPS 9999 FEW033 M06/M18 Q1031 NOSIG

Call us on +1-877-727-2538 (24 Hours) to Hire a Private Jet or Get a Quick Quote.

Find Airports Near any Location

Processing
...